Terminal Aerodrome Forecast
Issued by NWS

Home | Current Version | Previous Version | Text Only | Print | Product List | Glossary On
Versions: 1 2 3 4 5 6 7 8 9 10 11 12 13 14 15 16 17 18 19 20 21 22 23 24 25 26 27 28 29 30 31 32
000
FTUS45 KGJT 231134
TAFRIL
TAF
KRIL 231134Z 2312/2412 26023G31KT 3SM -SN BR FEW008 OVC014
      TEMPO 2312/2315 1SM -SHSN BR OVC008
     FM231600 26011G19KT 5SM -SHSN OVC030
     FM231800 26014G23KT P6SM VCSH BKN040
     FM240300 26009KT P6SM VCSH OVC060
     FM240600 26006KT P6SM BKN050=

USA.gov is the U.S. government's official web portal to all federal, state and local government web resources and services.